sensor_id;sensor_type;location;lat;lon;timestamp;P1;durP1;ratioP1;P2;durP2;ratioP2
37535;SDS011;23379;51.554;6.736;2024-03-17T00:01:09;14.40;;;6.70;;
37535;SDS011;23379;51.554;6.736;2024-03-17T00:03:35;15.50;;;7.97;;
37535;SDS011;23379;51.554;6.736;2024-03-17T00:06:00;16.08;;;8.73;;
37535;SDS011;23379;51.554;6.736;2024-03-17T00:08:26;16.27;;;9.02;;
37535;SDS011;23379;51.554;6.736;2024-03-17T00:10:52;14.02;;;8.43;;
37535;SDS011;23379;51.554;6.736;2024-03-17T00:13:19;17.45;;;8.40;;
37535;SDS011;23379;51.554;6.736;2024-03-17T00:15:45;11.40;;;6.95;;
37535;SDS011;23379;51.554;6.736;2024-03-17T00:18:10;14.88;;;7.30;;
37535;SDS011;23379;51.554;6.736;2024-03-17T00:20:36;13.05;;;7.47;;
37535;SDS011;23379;51.554;6.736;2024-03-17T00:23:03;21.40;;;7.47;;
37535;SDS011;23379;51.554;6.736;2024-03-17T00:25:31;15.27;;;6.95;;
37535;SDS011;23379;51.554;6.736;2024-03-17T00:27:56;9.35;;;6.82;;
37535;SDS011;23379;51.554;6.736;2024-03-17T00:30:22;11.30;;;7.57;;
37535;SDS011;23379;51.554;6.736;2024-03-17T00:32:48;12.68;;;7.35;;
37535;SDS011;23379;51.554;6.736;2024-03-17T00:35:13;14.10;;;7.90;;
37535;SDS011;23379;51.554;6.736;2024-03-17T00:40:10;14.75;;;6.72;;
37535;SDS011;23379;51.554;6.736;2024-03-17T00:42:36;11.35;;;7.47;;
37535;SDS011;23379;51.554;6.736;2024-03-17T00:45:02;11.25;;;7.50;;
37535;SDS011;23379;51.554;6.736;2024-03-17T00:47:30;13.40;;;7.88;;
37535;SDS011;23379;51.554;6.736;2024-03-17T00:49:56;14.43;;;7.40;;
37535;SDS011;23379;51.554;6.736;2024-03-17T00:52:21;16.05;;;7.50;;
37535;SDS011;23379;51.554;6.736;2024-03-17T00:54:46;18.02;;;8.07;;
37535;SDS011;23379;51.554;6.736;2024-03-17T00:57:13;13.77;;;8.48;;
37535;SDS011;23379;51.554;6.736;2024-03-17T00:59:38;11.93;;;7.43;;
37535;SDS011;23379;51.554;6.736;2024-03-17T01:02:04;15.38;;;7.65;;
37535;SDS011;23379;51.554;6.736;2024-03-17T01:04:29;10.90;;;7.78;;
37535;SDS011;23379;51.554;6.736;2024-03-17T01:06:58;15.18;;;8.93;;
37535;SDS011;23379;51.554;6.736;2024-03-17T01:09:24;16.20;;;8.27;;
37535;SDS011;23379;51.554;6.736;2024-03-17T01:11:49;15.82;;;7.88;;
37535;SDS011;23379;51.554;6.736;2024-03-17T01:14:15;12.20;;;7.40;;
37535;SDS011;23379;51.554;6.736;2024-03-17T01:16:40;13.13;;;7.80;;
37535;SDS011;23379;51.554;6.736;2024-03-17T01:19:06;14.57;;;7.13;;
37535;SDS011;23379;51.554;6.736;2024-03-17T01:21:31;12.98;;;6.82;;
37535;SDS011;23379;51.554;6.736;2024-03-17T01:23:56;10.73;;;6.95;;
37535;SDS011;23379;51.554;6.736;2024-03-17T01:26:22;15.55;;;6.95;;
37535;SDS011;23379;51.554;6.736;2024-03-17T01:28:49;13.82;;;7.53;;
37535;SDS011;23379;51.554;6.736;2024-03-17T01:31:14;15.02;;;7.43;;
37535;SDS011;23379;51.554;6.736;2024-03-17T01:33:40;14.48;;;7.57;;
37535;SDS011;23379;51.554;6.736;2024-03-17T01:36:05;14.85;;;7.50;;
37535;SDS011;23379;51.554;6.736;2024-03-17T01:38:31;13.73;;;7.53;;
37535;SDS011;23379;51.554;6.736;2024-03-17T01:40:57;12.10;;;7.57;;
37535;SDS011;23379;51.554;6.736;2024-03-17T01:43:23;11.88;;;7.30;;
37535;SDS011;23379;51.554;6.736;2024-03-17T01:45:48;17.17;;;8.07;;
37535;SDS011;23379;51.554;6.736;2024-03-17T01:48:14;10.63;;;7.22;;
37535;SDS011;23379;51.554;6.736;2024-03-17T01:50:42;12.40;;;7.22;;
37535;SDS011;23379;51.554;6.736;2024-03-17T01:53:09;13.18;;;7.82;;
37535;SDS011;23379;51.554;6.736;2024-03-17T01:55:38;15.20;;;8.18;;
37535;SDS011;23379;51.554;6.736;2024-03-17T01:58:05;12.45;;;7.22;;
37535;SDS011;23379;51.554;6.736;2024-03-17T02:00:37;15.05;;;7.10;;
37535;SDS011;23379;51.554;6.736;2024-03-17T02:03:06;9.88;;;6.60;;
37535;SDS011;23379;51.554;6.736;2024-03-17T02:05:33;12.68;;;7.03;;
37535;SDS011;23379;51.554;6.736;2024-03-17T02:07:59;13.63;;;6.40;;
37535;SDS011;23379;51.554;6.736;2024-03-17T02:10:25;10.30;;;6.55;;
37535;SDS011;23379;51.554;6.736;2024-03-17T02:12:51;12.00;;;7.35;;
37535;SDS011;23379;51.554;6.736;2024-03-17T02:15:16;12.68;;;6.90;;
37535;SDS011;23379;51.554;6.736;2024-03-17T02:17:42;14.48;;;6.55;;
37535;SDS011;23379;51.554;6.736;2024-03-17T02:20:08;9.63;;;6.97;;
37535;SDS011;23379;51.554;6.736;2024-03-17T02:22:36;10.57;;;6.10;;
37535;SDS011;23379;51.554;6.736;2024-03-17T02:25:02;12.85;;;6.57;;
37535;SDS011;23379;51.554;6.736;2024-03-17T02:27:28;8.70;;;6.10;;
37535;SDS011;23379;51.554;6.736;2024-03-17T02:29:53;8.85;;;5.80;;
37535;SDS011;23379;51.554;6.736;2024-03-17T02:32:19;13.32;;;6.72;;
37535;SDS011;23379;51.554;6.736;2024-03-17T02:34:47;10.10;;;5.47;;
37535;SDS011;23379;51.554;6.736;2024-03-17T02:37:12;10.45;;;6.60;;
37535;SDS011;23379;51.554;6.736;2024-03-17T02:39:38;12.32;;;6.18;;
37535;SDS011;23379;51.554;6.736;2024-03-17T02:42:07;10.38;;;6.18;;
37535;SDS011;23379;51.554;6.736;2024-03-17T02:44:34;9.07;;;6.32;;
37535;SDS011;23379;51.554;6.736;2024-03-17T02:47:01;8.00;;;5.30;;
37535;SDS011;23379;51.554;6.736;2024-03-17T02:49:29;7.72;;;5.88;;
37535;SDS011;23379;51.554;6.736;2024-03-17T02:52:01;8.70;;;5.80;;
37535;SDS011;23379;51.554;6.736;2024-03-17T02:54:31;13.40;;;5.93;;
37535;SDS011;23379;51.554;6.736;2024-03-17T02:56:56;8.07;;;5.60;;
37535;SDS011;23379;51.554;6.736;2024-03-17T02:59:22;11.60;;;6.32;;
37535;SDS011;23379;51.554;6.736;2024-03-17T03:01:47;10.80;;;5.90;;
37535;SDS011;23379;51.554;6.736;2024-03-17T03:04:13;12.23;;;5.70;;
37535;SDS011;23379;51.554;6.736;2024-03-17T03:06:38;9.30;;;5.22;;
37535;SDS011;23379;51.554;6.736;2024-03-17T03:09:04;11.20;;;6.13;;
37535;SDS011;23379;51.554;6.736;2024-03-17T03:11:37;10.43;;;5.68;;
37535;SDS011;23379;51.554;6.736;2024-03-17T03:14:02;9.63;;;5.90;;
37535;SDS011;23379;51.554;6.736;2024-03-17T03:16:28;8.85;;;5.75;;
37535;SDS011;23379;51.554;6.736;2024-03-17T03:18:53;9.75;;;5.30;;
37535;SDS011;23379;51.554;6.736;2024-03-17T03:21:19;10.15;;;5.97;;
37535;SDS011;23379;51.554;6.736;2024-03-17T03:23:44;10.85;;;6.07;;
37535;SDS011;23379;51.554;6.736;2024-03-17T03:26:10;16.00;;;6.40;;
37535;SDS011;23379;51.554;6.736;2024-03-17T03:28:35;11.95;;;5.97;;
37535;SDS011;23379;51.554;6.736;2024-03-17T03:31:01;11.63;;;5.95;;
37535;SDS011;23379;51.554;6.736;2024-03-17T03:33:27;9.50;;;6.22;;
37535;SDS011;23379;51.554;6.736;2024-03-17T03:35:53;13.20;;;5.78;;
37535;SDS011;23379;51.554;6.736;2024-03-17T03:38:18;9.73;;;6.05;;
37535;SDS011;23379;51.554;6.736;2024-03-17T03:40:44;14.98;;;6.00;;
37535;SDS011;23379;51.554;6.736;2024-03-17T03:43:10;8.48;;;5.80;;
37535;SDS011;23379;51.554;6.736;2024-03-17T03:45:36;11.32;;;5.80;;
37535;SDS011;23379;51.554;6.736;2024-03-17T03:48:03;9.65;;;5.93;;
37535;SDS011;23379;51.554;6.736;2024-03-17T03:50:29;11.88;;;5.22;;
37535;SDS011;23379;51.554;6.736;2024-03-17T03:52:54;12.43;;;5.90;;
37535;SDS011;23379;51.554;6.736;2024-03-17T03:55:20;8.52;;;5.20;;
37535;SDS011;23379;51.554;6.736;2024-03-17T03:57:45;10.18;;;5.22;;
37535;SDS011;23379;51.554;6.736;2024-03-17T04:00:13;9.68;;;5.38;;
37535;SDS011;23379;51.554;6.736;2024-03-17T04:02:44;9.20;;;5.82;;
37535;SDS011;23379;51.554;6.736;2024-03-17T04:05:10;12.30;;;6.38;;
37535;SDS011;23379;51.554;6.736;2024-03-17T04:07:38;10.60;;;5.63;;
37535;SDS011;23379;51.554;6.736;2024-03-17T04:10:04;12.05;;;5.72;;
37535;SDS011;23379;51.554;6.736;2024-03-17T04:12:30;10.10;;;6.28;;
37535;SDS011;23379;51.554;6.736;2024-03-17T04:14:59;11.43;;;6.22;;
37535;SDS011;23379;51.554;6.736;2024-03-17T04:17:25;10.90;;;6.75;;
37535;SDS011;23379;51.554;6.736;2024-03-17T04:19:51;8.80;;;6.28;;
37535;SDS011;23379;51.554;6.736;2024-03-17T04:22:17;11.43;;;6.40;;
37535;SDS011;23379;51.554;6.736;2024-03-17T04:24:44;12.85;;;6.70;;
37535;SDS011;23379;51.554;6.736;2024-03-17T04:27:10;14.48;;;7.65;;
37535;SDS011;23379;51.554;6.736;2024-03-17T04:29:35;11.30;;;7.50;;
37535;SDS011;23379;51.554;6.736;2024-03-17T04:32:01;13.40;;;7.90;;
37535;SDS011;23379;51.554;6.736;2024-03-17T04:34:29;14.88;;;7.88;;
37535;SDS011;23379;51.554;6.736;2024-03-17T04:36:55;17.90;;;7.90;;
37535;SDS011;23379;51.554;6.736;2024-03-17T04:39:20;20.20;;;8.10;;
37535;SDS011;23379;51.554;6.736;2024-03-17T04:41:47;14.40;;;7.80;;
37535;SDS011;23379;51.554;6.736;2024-03-17T04:44:13;15.65;;;7.85;;
37535;SDS011;23379;51.554;6.736;2024-03-17T04:46:38;14.90;;;8.13;;
37535;SDS011;23379;51.554;6.736;2024-03-17T04:49:03;20.77;;;7.97;;
37535;SDS011;23379;51.554;6.736;2024-03-17T04:51:29;17.75;;;7.82;;
37535;SDS011;23379;51.554;6.736;2024-03-17T04:53:54;16.95;;;8.60;;
37535;SDS011;23379;51.554;6.736;2024-03-17T04:56:20;17.73;;;7.93;;
37535;SDS011;23379;51.554;6.736;2024-03-17T04:58:46;13.07;;;7.93;;
37535;SDS011;23379;51.554;6.736;2024-03-17T05:01:11;13.05;;;8.05;;
37535;SDS011;23379;51.554;6.736;2024-03-17T05:03:38;13.35;;;7.75;;
37535;SDS011;23379;51.554;6.736;2024-03-17T05:06:04;14.20;;;7.63;;
37535;SDS011;23379;51.554;6.736;2024-03-17T05:08:30;18.02;;;7.78;;
37535;SDS011;23379;51.554;6.736;2024-03-17T05:11:01;11.13;;;7.00;;
37535;SDS011;23379;51.554;6.736;2024-03-17T05:13:34;12.27;;;7.88;;
37535;SDS011;23379;51.554;6.736;2024-03-17T05:16:00;14.68;;;8.15;;
37535;SDS011;23379;51.554;6.736;2024-03-17T05:18:26;14.05;;;8.05;;
37535;SDS011;23379;51.554;6.736;2024-03-17T05:21:02;11.55;;;7.90;;
37535;SDS011;23379;51.554;6.736;2024-03-17T05:23:36;12.68;;;7.82;;
37535;SDS011;23379;51.554;6.736;2024-03-17T05:26:02;12.85;;;7.85;;
37535;SDS011;23379;51.554;6.736;2024-03-17T05:28:29;14.45;;;7.90;;
37535;SDS011;23379;51.554;6.736;2024-03-17T05:30:55;15.52;;;8.02;;
37535;SDS011;23379;51.554;6.736;2024-03-17T05:33:22;11.25;;;7.93;;
37535;SDS011;23379;51.554;6.736;2024-03-17T05:35:54;14.20;;;7.60;;
37535;SDS011;23379;51.554;6.736;2024-03-17T05:38:22;14.93;;;7.38;;
37535;SDS011;23379;51.554;6.736;2024-03-17T05:43:23;13.55;;;8.05;;
37535;SDS011;23379;51.554;6.736;2024-03-17T05:45:49;12.10;;;7.82;;
37535;SDS011;23379;51.554;6.736;2024-03-17T05:48:16;15.35;;;8.30;;
37535;SDS011;23379;51.554;6.736;2024-03-17T05:50:42;13.30;;;7.25;;
37535;SDS011;23379;51.554;6.736;2024-03-17T05:53:07;13.25;;;7.93;;
37535;SDS011;23379;51.554;6.736;2024-03-17T05:55:34;13.95;;;7.78;;
37535;SDS011;23379;51.554;6.736;2024-03-17T05:58:01;16.42;;;9.48;;
37535;SDS011;23379;51.554;6.736;2024-03-17T06:00:27;11.55;;;7.75;;
37535;SDS011;23379;51.554;6.736;2024-03-17T06:02:52;12.18;;;8.10;;
37535;SDS011;23379;51.554;6.736;2024-03-17T06:05:17;12.88;;;8.07;;
37535;SDS011;23379;51.554;6.736;2024-03-17T06:07:43;13.40;;;8.57;;
37535;SDS011;23379;51.554;6.736;2024-03-17T06:10:08;15.98;;;8.13;;
37535;SDS011;23379;51.554;6.736;2024-03-17T06:12:34;15.50;;;8.05;;
37535;SDS011;23379;51.554;6.736;2024-03-17T06:14:59;14.75;;;7.85;;
37535;SDS011;23379;51.554;6.736;2024-03-17T06:17:27;14.80;;;8.35;;
37535;SDS011;23379;51.554;6.736;2024-03-17T06:19:52;20.83;;;8.60;;
37535;SDS011;23379;51.554;6.736;2024-03-17T06:22:17;16.50;;;8.38;;
37535;SDS011;23379;51.554;6.736;2024-03-17T06:24:43;12.68;;;7.65;;
37535;SDS011;23379;51.554;6.736;2024-03-17T06:27:08;12.68;;;7.80;;
37535;SDS011;23379;51.554;6.736;2024-03-17T06:29:34;12.93;;;7.63;;
37535;SDS011;23379;51.554;6.736;2024-03-17T06:31:59;12.15;;;7.95;;
37535;SDS011;23379;51.554;6.736;2024-03-17T06:34:25;10.23;;;7.28;;
37535;SDS011;23379;51.554;6.736;2024-03-17T06:36:51;9.30;;;7.25;;
37535;SDS011;23379;51.554;6.736;2024-03-17T06:39:16;17.13;;;7.43;;
37535;SDS011;23379;51.554;6.736;2024-03-17T06:41:42;11.27;;;7.10;;
37535;SDS011;23379;51.554;6.736;2024-03-17T06:44:08;9.68;;;6.63;;
37535;SDS011;23379;51.554;6.736;2024-03-17T06:46:34;12.02;;;7.22;;
37535;SDS011;23379;51.554;6.736;2024-03-17T06:48:59;11.85;;;7.18;;
37535;SDS011;23379;51.554;6.736;2024-03-17T06:51:25;12.90;;;6.13;;
37535;SDS011;23379;51.554;6.736;2024-03-17T06:53:50;8.70;;;6.50;;
37535;SDS011;23379;51.554;6.736;2024-03-17T06:56:15;7.72;;;6.00;;
37535;SDS011;23379;51.554;6.736;2024-03-17T06:58:41;11.63;;;6.43;;
37535;SDS011;23379;51.554;6.736;2024-03-17T07:01:06;7.95;;;6.00;;
37535;SDS011;23379;51.554;6.736;2024-03-17T07:03:33;10.73;;;6.22;;
37535;SDS011;23379;51.554;6.736;2024-03-17T07:05:59;9.07;;;5.07;;
37535;SDS011;23379;51.554;6.736;2024-03-17T07:08:29;8.75;;;5.05;;
37535;SDS011;23379;51.554;6.736;2024-03-17T07:13:25;6.88;;;4.75;;
37535;SDS011;23379;51.554;6.736;2024-03-17T07:15:50;7.28;;;5.35;;
37535;SDS011;23379;51.554;6.736;2024-03-17T07:18:16;9.48;;;4.90;;
37535;SDS011;23379;51.554;6.736;2024-03-17T07:20:41;7.10;;;5.20;;
37535;SDS011;23379;51.554;6.736;2024-03-17T07:23:07;6.18;;;4.45;;
37535;SDS011;23379;51.554;6.736;2024-03-17T07:25:32;9.10;;;4.72;;
37535;SDS011;23379;51.554;6.736;2024-03-17T07:27:57;7.13;;;4.15;;
37535;SDS011;23379;51.554;6.736;2024-03-17T07:30:23;6.55;;;3.80;;
37535;SDS011;23379;51.554;6.736;2024-03-17T07:32:48;6.53;;;4.25;;
37535;SDS011;23379;51.554;6.736;2024-03-17T07:35:13;5.97;;;3.97;;
37535;SDS011;23379;51.554;6.736;2024-03-17T07:37:39;4.10;;;3.70;;
37535;SDS011;23379;51.554;6.736;2024-03-17T07:40:05;6.82;;;3.90;;
37535;SDS011;23379;51.554;6.736;2024-03-17T07:42:32;5.93;;;3.38;;
37535;SDS011;23379;51.554;6.736;2024-03-17T07:44:58;6.43;;;3.50;;
37535;SDS011;23379;51.554;6.736;2024-03-17T07:47:23;5.53;;;4.03;;
37535;SDS011;23379;51.554;6.736;2024-03-17T07:49:49;5.78;;;3.70;;
37535;SDS011;23379;51.554;6.736;2024-03-17T07:52:14;8.70;;;3.65;;
37535;SDS011;23379;51.554;6.736;2024-03-17T07:54:40;3.70;;;3.40;;
37535;SDS011;23379;51.554;6.736;2024-03-17T07:57:06;5.55;;;3.95;;
37535;SDS011;23379;51.554;6.736;2024-03-17T07:59:31;6.28;;;3.72;;
37535;SDS011;23379;51.554;6.736;2024-03-17T08:01:56;6.85;;;3.83;;
37535;SDS011;23379;51.554;6.736;2024-03-17T08:04:22;10.48;;;4.00;;
37535;SDS011;23379;51.554;6.736;2024-03-17T08:06:48;4.18;;;3.58;;
37535;SDS011;23379;51.554;6.736;2024-03-17T08:09:13;6.15;;;3.90;;
37535;SDS011;23379;51.554;6.736;2024-03-17T08:11:41;6.47;;;3.58;;
37535;SDS011;23379;51.554;6.736;2024-03-17T08:14:11;5.65;;;3.72;;
37535;SDS011;23379;51.554;6.736;2024-03-17T08:16:36;6.78;;;3.75;;
37535;SDS011;23379;51.554;6.736;2024-03-17T08:19:02;3.92;;;3.05;;
37535;SDS011;23379;51.554;6.736;2024-03-17T08:21:28;3.55;;;2.85;;
37535;SDS011;23379;51.554;6.736;2024-03-17T08:23:54;3.65;;;2.63;;
37535;SDS011;23379;51.554;6.736;2024-03-17T08:26:20;4.28;;;2.97;;
37535;SDS011;23379;51.554;6.736;2024-03-17T08:28:46;5.85;;;2.80;;
37535;SDS011;23379;51.554;6.736;2024-03-17T08:31:11;6.30;;;3.22;;
37535;SDS011;23379;51.554;6.736;2024-03-17T08:33:37;3.85;;;2.50;;
37535;SDS011;23379;51.554;6.736;2024-03-17T08:36:03;3.72;;;2.30;;
37535;SDS011;23379;51.554;6.736;2024-03-17T08:38:32;5.30;;;3.10;;
37535;SDS011;23379;51.554;6.736;2024-03-17T08:41:08;3.95;;;2.70;;
37535;SDS011;23379;51.554;6.736;2024-03-17T08:43:35;4.03;;;2.70;;
37535;SDS011;23379;51.554;6.736;2024-03-17T08:46:05;4.18;;;3.22;;
37535;SDS011;23379;51.554;6.736;2024-03-17T08:48:32;4.57;;;2.70;;
37535;SDS011;23379;51.554;6.736;2024-03-17T08:50:59;5.05;;;2.70;;
37535;SDS011;23379;51.554;6.736;2024-03-17T08:53:26;4.25;;;2.65;;
37535;SDS011;23379;51.554;6.736;2024-03-17T08:55:52;2.90;;;2.65;;
37535;SDS011;23379;51.554;6.736;2024-03-17T08:58:18;7.80;;;3.03;;
37535;SDS011;23379;51.554;6.736;2024-03-17T09:00:44;4.50;;;2.95;;
37535;SDS011;23379;51.554;6.736;2024-03-17T09:03:10;6.13;;;2.83;;
37535;SDS011;23379;51.554;6.736;2024-03-17T09:05:37;6.63;;;2.80;;
37535;SDS011;23379;51.554;6.736;2024-03-17T09:08:03;4.72;;;3.13;;
37535;SDS011;23379;51.554;6.736;2024-03-17T09:10:29;3.60;;;2.80;;
37535;SDS011;23379;51.554;6.736;2024-03-17T09:12:54;7.22;;;3.08;;
37535;SDS011;23379;51.554;6.736;2024-03-17T09:15:20;5.57;;;3.50;;
37535;SDS011;23379;51.554;6.736;2024-03-17T09:17:45;6.18;;;3.33;;
37535;SDS011;23379;51.554;6.736;2024-03-17T09:20:12;5.75;;;3.00;;
37535;SDS011;23379;51.554;6.736;2024-03-17T09:22:38;10.82;;;4.50;;
37535;SDS011;23379;51.554;6.736;2024-03-17T09:25:07;8.32;;;3.80;;
37535;SDS011;23379;51.554;6.736;2024-03-17T09:27:33;4.57;;;3.00;;
37535;SDS011;23379;51.554;6.736;2024-03-17T09:29:59;5.43;;;2.75;;
37535;SDS011;23379;51.554;6.736;2024-03-17T09:32:25;3.72;;;2.55;;
37535;SDS011;23379;51.554;6.736;2024-03-17T09:34:51;5.60;;;2.20;;
37535;SDS011;23379;51.554;6.736;2024-03-17T09:37:16;5.75;;;2.25;;
37535;SDS011;23379;51.554;6.736;2024-03-17T09:39:42;6.30;;;2.53;;
37535;SDS011;23379;51.554;6.736;2024-03-17T09:42:13;6.35;;;2.42;;
37535;SDS011;23379;51.554;6.736;2024-03-17T09:44:44;4.68;;;2.17;;
37535;SDS011;23379;51.554;6.736;2024-03-17T09:47:15;3.63;;;2.40;;
37535;SDS011;23379;51.554;6.736;2024-03-17T09:49:46;3.75;;;2.38;;
37535;SDS011;23379;51.554;6.736;2024-03-17T09:52:15;5.03;;;2.85;;
37535;SDS011;23379;51.554;6.736;2024-03-17T09:54:58;6.13;;;2.75;;
37535;SDS011;23379;51.554;6.736;2024-03-17T09:57:25;5.70;;;2.50;;
37535;SDS011;23379;51.554;6.736;2024-03-17T09:59:53;3.03;;;2.20;;
37535;SDS011;23379;51.554;6.736;2024-03-17T10:02:19;4.75;;;2.63;;
37535;SDS011;23379;51.554;6.736;2024-03-17T10:04:45;4.15;;;2.40;;
37535;SDS011;23379;51.554;6.736;2024-03-17T10:07:11;3.30;;;2.40;;
37535;SDS011;23379;51.554;6.736;2024-03-17T10:09:36;2.80;;;2.00;;
37535;SDS011;23379;51.554;6.736;2024-03-17T10:12:02;4.57;;;2.42;;
37535;SDS011;23379;51.554;6.736;2024-03-17T10:14:28;3.67;;;2.42;;
37535;SDS011;23379;51.554;6.736;2024-03-17T10:16:53;4.40;;;2.40;;
37535;SDS011;23379;51.554;6.736;2024-03-17T10:19:25;3.85;;;2.38;;
37535;SDS011;23379;51.554;6.736;2024-03-17T10:21:59;5.38;;;2.40;;
37535;SDS011;23379;51.554;6.736;2024-03-17T10:24:26;2.92;;;2.03;;
37535;SDS011;23379;51.554;6.736;2024-03-17T10:26:57;4.70;;;2.38;;
37535;SDS011;23379;51.554;6.736;2024-03-17T10:31:50;4.65;;;2.55;;
37535;SDS011;23379;51.554;6.736;2024-03-17T10:34:20;4.15;;;2.40;;
37535;SDS011;23379;51.554;6.736;2024-03-17T10:36:49;5.32;;;2.50;;
37535;SDS011;23379;51.554;6.736;2024-03-17T10:39:25;6.88;;;2.60;;
37535;SDS011;23379;51.554;6.736;2024-03-17T10:41:57;3.83;;;2.22;;
37535;SDS011;23379;51.554;6.736;2024-03-17T10:44:25;5.05;;;3.88;;
37535;SDS011;23379;51.554;6.736;2024-03-17T10:46:54;7.32;;;2.63;;
37535;SDS011;23379;51.554;6.736;2024-03-17T10:49:23;5.18;;;2.92;;
37535;SDS011;23379;51.554;6.736;2024-03-17T10:51:53;7.13;;;4.57;;
37535;SDS011;23379;51.554;6.736;2024-03-17T10:54:23;4.80;;;3.28;;
37535;SDS011;23379;51.554;6.736;2024-03-17T10:56:53;4.13;;;2.72;;
37535;SDS011;23379;51.554;6.736;2024-03-17T10:59:42;4.40;;;3.40;;
37535;SDS011;23379;51.554;6.736;2024-03-17T11:02:17;4.63;;;3.15;;
37535;SDS011;23379;51.554;6.736;2024-03-17T11:04:53;4.22;;;3.08;;
37535;SDS011;23379;51.554;6.736;2024-03-17T11:07:20;8.07;;;4.88;;
37535;SDS011;23379;51.554;6.736;2024-03-17T11:09:47;4.63;;;2.90;;
37535;SDS011;23379;51.554;6.736;2024-03-17T11:17:45;4.38;;;2.65;;
37535;SDS011;23379;51.554;6.736;2024-03-17T11:22:48;6.40;;;3.50;;
37535;SDS011;23379;51.554;6.736;2024-03-17T11:27:52;4.75;;;2.70;;
37535;SDS011;23379;51.554;6.736;2024-03-17T11:46:54;4.97;;;2.85;;
37535;SDS011;23379;51.554;6.736;2024-03-17T11:49:36;5.90;;;3.35;;
37535;SDS011;23379;51.554;6.736;2024-03-17T11:54:35;7.45;;;3.15;;
37535;SDS011;23379;51.554;6.736;2024-03-17T11:57:02;7.97;;;3.50;;
37535;SDS011;23379;51.554;6.736;2024-03-17T11:59:28;12.45;;;3.75;;
37535;SDS011;23379;51.554;6.736;2024-03-17T12:01:54;8.23;;;3.28;;
37535;SDS011;23379;51.554;6.736;2024-03-17T12:04:21;10.57;;;4.55;;
37535;SDS011;23379;51.554;6.736;2024-03-17T12:07:07;5.38;;;2.80;;
37535;SDS011;23379;51.554;6.736;2024-03-17T12:09:38;4.18;;;2.45;;
37535;SDS011;23379;51.554;6.736;2024-03-17T12:12:06;5.22;;;3.08;;
37535;SDS011;23379;51.554;6.736;2024-03-17T12:14:37;5.43;;;3.05;;
37535;SDS011;23379;51.554;6.736;2024-03-17T12:17:07;5.07;;;3.28;;
37535;SDS011;23379;51.554;6.736;2024-03-17T12:19:34;8.15;;;3.75;;
37535;SDS011;23379;51.554;6.736;2024-03-17T12:22:00;8.35;;;3.70;;
37535;SDS011;23379;51.554;6.736;2024-03-17T12:24:27;7.25;;;3.15;;
37535;SDS011;23379;51.554;6.736;2024-03-17T12:26:55;5.18;;;3.05;;
37535;SDS011;23379;51.554;6.736;2024-03-17T12:29:25;6.35;;;2.97;;
37535;SDS011;23379;51.554;6.736;2024-03-17T12:31:53;7.43;;;3.05;;
37535;SDS011;23379;51.554;6.736;2024-03-17T12:34:20;5.85;;;3.00;;
37535;SDS011;23379;51.554;6.736;2024-03-17T12:36:46;7.65;;;2.95;;
37535;SDS011;23379;51.554;6.736;2024-03-17T12:39:23;5.30;;;2.67;;
37535;SDS011;23379;51.554;6.736;2024-03-17T12:44:34;4.78;;;2.47;;
37535;SDS011;23379;51.554;6.736;2024-03-17T12:47:04;7.00;;;2.80;;
37535;SDS011;23379;51.554;6.736;2024-03-17T12:49:34;5.10;;;2.40;;
37535;SDS011;23379;51.554;6.736;2024-03-17T12:51:59;6.60;;;3.05;;
37535;SDS011;23379;51.554;6.736;2024-03-17T12:54:26;4.88;;;2.42;;
37535;SDS011;23379;51.554;6.736;2024-03-17T12:57:06;5.03;;;2.80;;
37535;SDS011;23379;51.554;6.736;2024-03-17T12:59:51;5.63;;;2.97;;
37535;SDS011;23379;51.554;6.736;2024-03-17T13:02:42;7.72;;;2.72;;
37535;SDS011;23379;51.554;6.736;2024-03-17T13:05:17;3.95;;;2.72;;
37535;SDS011;23379;51.554;6.736;2024-03-17T13:07:45;4.07;;;2.78;;
37535;SDS011;23379;51.554;6.736;2024-03-17T13:10:15;7.05;;;2.47;;
37535;SDS011;23379;51.554;6.736;2024-03-17T13:12:42;4.28;;;2.40;;
37535;SDS011;23379;51.554;6.736;2024-03-17T13:15:13;5.75;;;3.05;;
37535;SDS011;23379;51.554;6.736;2024-03-17T13:17:42;4.47;;;2.97;;
37535;SDS011;23379;51.554;6.736;2024-03-17T13:20:14;5.70;;;3.33;;
37535;SDS011;23379;51.554;6.736;2024-03-17T13:22:41;6.47;;;3.30;;
37535;SDS011;23379;51.554;6.736;2024-03-17T13:25:14;7.82;;;2.85;;
37535;SDS011;23379;51.554;6.736;2024-03-17T13:27:44;2.95;;;2.63;;
37535;SDS011;23379;51.554;6.736;2024-03-17T13:30:13;4.28;;;2.80;;
37535;SDS011;23379;51.554;6.736;2024-03-17T13:32:39;9.63;;;3.00;;
37535;SDS011;23379;51.554;6.736;2024-03-17T13:35:10;5.65;;;3.00;;
37535;SDS011;23379;51.554;6.736;2024-03-17T13:37:49;7.40;;;2.85;;
37535;SDS011;23379;51.554;6.736;2024-03-17T13:40:16;7.15;;;3.28;;
37535;SDS011;23379;51.554;6.736;2024-03-17T13:42:47;8.00;;;3.83;;
37535;SDS011;23379;51.554;6.736;2024-03-17T13:45:16;5.20;;;3.53;;
37535;SDS011;23379;51.554;6.736;2024-03-17T13:47:50;8.50;;;4.15;;
37535;SDS011;23379;51.554;6.736;2024-03-17T13:50:18;5.47;;;3.70;;
37535;SDS011;23379;51.554;6.736;2024-03-17T13:52:44;3.47;;;3.17;;
37535;SDS011;23379;51.554;6.736;2024-03-17T13:55:16;5.18;;;3.70;;
37535;SDS011;23379;51.554;6.736;2024-03-17T13:57:47;5.72;;;2.90;;
37535;SDS011;23379;51.554;6.736;2024-03-17T14:00:16;9.65;;;3.70;;
37535;SDS011;23379;51.554;6.736;2024-03-17T14:02:43;5.13;;;2.95;;
37535;SDS011;23379;51.554;6.736;2024-03-17T14:05:13;7.15;;;3.08;;
37535;SDS011;23379;51.554;6.736;2024-03-17T14:07:40;5.10;;;2.72;;
37535;SDS011;23379;51.554;6.736;2024-03-17T14:10:06;7.40;;;2.88;;
37535;SDS011;23379;51.554;6.736;2024-03-17T14:12:33;5.43;;;2.95;;
37535;SDS011;23379;51.554;6.736;2024-03-17T14:14:59;5.47;;;3.08;;
37535;SDS011;23379;51.554;6.736;2024-03-17T14:17:24;4.97;;;3.10;;
37535;SDS011;23379;51.554;6.736;2024-03-17T14:19:50;5.32;;;2.97;;
37535;SDS011;23379;51.554;6.736;2024-03-17T14:22:15;7.70;;;2.55;;
37535;SDS011;23379;51.554;6.736;2024-03-17T14:24:40;4.85;;;2.88;;
37535;SDS011;23379;51.554;6.736;2024-03-17T14:27:06;4.78;;;2.58;;
37535;SDS011;23379;51.554;6.736;2024-03-17T14:29:33;5.57;;;2.80;;
37535;SDS011;23379;51.554;6.736;2024-03-17T14:31:59;6.45;;;3.13;;
37535;SDS011;23379;51.554;6.736;2024-03-17T14:34:24;6.35;;;2.78;;
37535;SDS011;23379;51.554;6.736;2024-03-17T14:36:52;6.35;;;2.50;;
37535;SDS011;23379;51.554;6.736;2024-03-17T14:39:17;5.88;;;2.53;;
37535;SDS011;23379;51.554;6.736;2024-03-17T14:41:42;7.32;;;2.63;;
37535;SDS011;23379;51.554;6.736;2024-03-17T14:44:08;5.63;;;2.75;;
37535;SDS011;23379;51.554;6.736;2024-03-17T14:46:33;5.35;;;2.75;;
37535;SDS011;23379;51.554;6.736;2024-03-17T14:48:58;4.65;;;2.67;;
37535;SDS011;23379;51.554;6.736;2024-03-17T14:51:24;9.60;;;2.60;;
37535;SDS011;23379;51.554;6.736;2024-03-17T14:53:49;6.03;;;2.45;;
37535;SDS011;23379;51.554;6.736;2024-03-17T14:56:17;8.48;;;2.78;;
37535;SDS011;23379;51.554;6.736;2024-03-17T14:58:43;5.78;;;2.83;;
37535;SDS011;23379;51.554;6.736;2024-03-17T15:01:09;5.10;;;2.60;;
37535;SDS011;23379;51.554;6.736;2024-03-17T15:03:35;4.18;;;2.47;;
37535;SDS011;23379;51.554;6.736;2024-03-17T15:06:01;8.80;;;2.72;;
37535;SDS011;23379;51.554;6.736;2024-03-17T15:08:29;6.18;;;2.63;;
37535;SDS011;23379;51.554;6.736;2024-03-17T15:10:55;7.15;;;2.88;;
37535;SDS011;23379;51.554;6.736;2024-03-17T15:13:21;6.95;;;2.58;;
37535;SDS011;23379;51.554;6.736;2024-03-17T15:15:48;4.93;;;2.67;;
37535;SDS011;23379;51.554;6.736;2024-03-17T15:18:14;5.43;;;3.03;;
37535;SDS011;23379;51.554;6.736;2024-03-17T15:20:41;5.10;;;2.90;;
37535;SDS011;23379;51.554;6.736;2024-03-17T15:23:06;5.88;;;2.95;;
37535;SDS011;23379;51.554;6.736;2024-03-17T15:25:32;8.75;;;2.88;;